sensor_id;sensor_type;location;lat;lon;timestamp;P1;durP1;ratioP1;P2;durP2;ratioP2
52047;SDS011;46904;49.438;8.752;2023-05-21T00:00:07;9.57;;;8.02;;
52047;SDS011;46904;49.438;8.752;2023-05-21T00:02:33;11.18;;;8.48;;
52047;SDS011;46904;49.438;8.752;2023-05-21T00:04:58;11.13;;;8.98;;
52047;SDS011;46904;49.438;8.752;2023-05-21T00:07:24;17.25;;;8.77;;
52047;SDS011;46904;49.438;8.752;2023-05-21T00:09:49;11.38;;;8.80;;
52047;SDS011;46904;49.438;8.752;2023-05-21T00:12:15;12.07;;;8.73;;
52047;SDS011;46904;49.438;8.752;2023-05-21T00:14:41;11.57;;;8.60;;
52047;SDS011;46904;49.438;8.752;2023-05-21T00:17:06;9.18;;;7.93;;
52047;SDS011;46904;49.438;8.752;2023-05-21T00:19:32;10.73;;;8.93;;
52047;SDS011;46904;49.438;8.752;2023-05-21T00:21:59;14.82;;;9.50;;
52047;SDS011;46904;49.438;8.752;2023-05-21T00:24:34;10.63;;;8.80;;
52047;SDS011;46904;49.438;8.752;2023-05-21T00:26:59;11.77;;;9.10;;
52047;SDS011;46904;49.438;8.752;2023-05-21T00:29:25;10.32;;;8.60;;
52047;SDS011;46904;49.438;8.752;2023-05-21T00:31:51;13.65;;;10.48;;
52047;SDS011;46904;49.438;8.752;2023-05-21T00:34:16;11.38;;;8.93;;
52047;SDS011;46904;49.438;8.752;2023-05-21T00:36:44;11.43;;;8.27;;
52047;SDS011;46904;49.438;8.752;2023-05-21T00:39:11;9.75;;;7.80;;
52047;SDS011;46904;49.438;8.752;2023-05-21T00:41:36;10.00;;;8.73;;
52047;SDS011;46904;49.438;8.752;2023-05-21T00:44:02;11.27;;;9.10;;
52047;SDS011;46904;49.438;8.752;2023-05-21T00:46:28;11.68;;;8.65;;
52047;SDS011;46904;49.438;8.752;2023-05-21T00:48:54;11.68;;;9.30;;
52047;SDS011;46904;49.438;8.752;2023-05-21T00:51:21;10.55;;;8.55;;
52047;SDS011;46904;49.438;8.752;2023-05-21T00:53:51;10.82;;;8.60;;
52047;SDS011;46904;49.438;8.752;2023-05-21T00:56:18;9.95;;;8.63;;
52047;SDS011;46904;49.438;8.752;2023-05-21T00:58:43;9.57;;;8.15;;
52047;SDS011;46904;49.438;8.752;2023-05-21T01:01:10;10.38;;;8.10;;
52047;SDS011;46904;49.438;8.752;2023-05-21T01:03:36;16.00;;;8.93;;
52047;SDS011;46904;49.438;8.752;2023-05-21T01:06:06;9.50;;;8.02;;
52047;SDS011;46904;49.438;8.752;2023-05-21T01:08:33;11.70;;;8.57;;
52047;SDS011;46904;49.438;8.752;2023-05-21T01:10:59;10.05;;;8.65;;
52047;SDS011;46904;49.438;8.752;2023-05-21T01:13:25;10.60;;;8.90;;
52047;SDS011;46904;49.438;8.752;2023-05-21T01:15:51;9.60;;;7.93;;
52047;SDS011;46904;49.438;8.752;2023-05-21T01:18:18;10.75;;;7.90;;
52047;SDS011;46904;49.438;8.752;2023-05-21T01:20:45;10.18;;;8.40;;
52047;SDS011;46904;49.438;8.752;2023-05-21T01:23:10;9.90;;;8.07;;
52047;SDS011;46904;49.438;8.752;2023-05-21T01:25:40;10.85;;;7.95;;
52047;SDS011;46904;49.438;8.752;2023-05-21T01:28:05;9.40;;;7.65;;
52047;SDS011;46904;49.438;8.752;2023-05-21T01:30:31;9.32;;;7.95;;
52047;SDS011;46904;49.438;8.752;2023-05-21T01:33:03;10.73;;;9.15;;
52047;SDS011;46904;49.438;8.752;2023-05-21T01:38:25;10.82;;;8.88;;
52047;SDS011;46904;49.438;8.752;2023-05-21T01:40:57;9.60;;;8.48;;
52047;SDS011;46904;49.438;8.752;2023-05-21T01:43:25;9.35;;;7.50;;
52047;SDS011;46904;49.438;8.752;2023-05-21T01:45:53;10.27;;;7.85;;
52047;SDS011;46904;49.438;8.752;2023-05-21T01:48:19;10.63;;;7.80;;
52047;SDS011;46904;49.438;8.752;2023-05-21T01:50:45;9.57;;;7.68;;
52047;SDS011;46904;49.438;8.752;2023-05-21T01:53:18;9.77;;;7.70;;
52047;SDS011;46904;49.438;8.752;2023-05-21T01:55:43;10.30;;;8.25;;
52047;SDS011;46904;49.438;8.752;2023-05-21T01:58:09;9.18;;;7.68;;
52047;SDS011;46904;49.438;8.752;2023-05-21T02:00:35;10.25;;;8.45;;
52047;SDS011;46904;49.438;8.752;2023-05-21T02:03:00;13.60;;;8.65;;
52047;SDS011;46904;49.438;8.752;2023-05-21T02:05:26;9.40;;;8.25;;
52047;SDS011;46904;49.438;8.752;2023-05-21T02:07:51;9.23;;;7.93;;
52047;SDS011;46904;49.438;8.752;2023-05-21T02:10:17;9.82;;;7.38;;
52047;SDS011;46904;49.438;8.752;2023-05-21T02:12:43;9.85;;;8.50;;
52047;SDS011;46904;49.438;8.752;2023-05-21T02:15:08;10.75;;;8.27;;
52047;SDS011;46904;49.438;8.752;2023-05-21T02:17:34;9.57;;;7.78;;
52047;SDS011;46904;49.438;8.752;2023-05-21T02:19:59;10.88;;;8.82;;
52047;SDS011;46904;49.438;8.752;2023-05-21T02:22:25;10.18;;;8.20;;
52047;SDS011;46904;49.438;8.752;2023-05-21T02:24:50;11.02;;;8.38;;
52047;SDS011;46904;49.438;8.752;2023-05-21T02:27:16;11.85;;;8.32;;
52047;SDS011;46904;49.438;8.752;2023-05-21T02:29:42;15.50;;;11.60;;
52047;SDS011;46904;49.438;8.752;2023-05-21T02:32:07;11.80;;;9.70;;
52047;SDS011;46904;49.438;8.752;2023-05-21T02:34:33;10.88;;;8.70;;
52047;SDS011;46904;49.438;8.752;2023-05-21T02:36:58;9.35;;;7.85;;
52047;SDS011;46904;49.438;8.752;2023-05-21T02:39:24;10.80;;;8.50;;
52047;SDS011;46904;49.438;8.752;2023-05-21T02:41:49;10.95;;;8.60;;
52047;SDS011;46904;49.438;8.752;2023-05-21T02:44:15;8.80;;;7.53;;
52047;SDS011;46904;49.438;8.752;2023-05-21T02:46:40;10.60;;;8.38;;
52047;SDS011;46904;49.438;8.752;2023-05-21T02:49:06;11.63;;;8.43;;
52047;SDS011;46904;49.438;8.752;2023-05-21T02:51:31;9.80;;;8.05;;
52047;SDS011;46904;49.438;8.752;2023-05-21T02:53:57;11.43;;;7.72;;
52047;SDS011;46904;49.438;8.752;2023-05-21T02:56:23;9.55;;;7.88;;
52047;SDS011;46904;49.438;8.752;2023-05-21T02:58:48;9.77;;;8.15;;
52047;SDS011;46904;49.438;8.752;2023-05-21T03:01:14;10.55;;;7.45;;
52047;SDS011;46904;49.438;8.752;2023-05-21T03:03:39;9.88;;;8.23;;
52047;SDS011;46904;49.438;8.752;2023-05-21T03:06:05;10.32;;;8.30;;
52047;SDS011;46904;49.438;8.752;2023-05-21T03:08:30;10.02;;;7.93;;
52047;SDS011;46904;49.438;8.752;2023-05-21T03:10:56;10.27;;;7.53;;
52047;SDS011;46904;49.438;8.752;2023-05-21T03:13:22;9.45;;;7.65;;
52047;SDS011;46904;49.438;8.752;2023-05-21T03:15:47;9.10;;;7.68;;
52047;SDS011;46904;49.438;8.752;2023-05-21T03:18:13;8.77;;;7.63;;
52047;SDS011;46904;49.438;8.752;2023-05-21T03:20:38;10.55;;;8.50;;
52047;SDS011;46904;49.438;8.752;2023-05-21T03:23:04;9.13;;;7.95;;
52047;SDS011;46904;49.438;8.752;2023-05-21T03:25:29;9.00;;;7.32;;
52047;SDS011;46904;49.438;8.752;2023-05-21T03:27:55;8.93;;;7.78;;
52047;SDS011;46904;49.438;8.752;2023-05-21T03:30:20;11.13;;;8.00;;
52047;SDS011;46904;49.438;8.752;2023-05-21T03:32:46;9.68;;;7.80;;
52047;SDS011;46904;49.438;8.752;2023-05-21T03:35:12;11.93;;;8.05;;
52047;SDS011;46904;49.438;8.752;2023-05-21T03:37:38;11.90;;;8.15;;
52047;SDS011;46904;49.438;8.752;2023-05-21T03:40:04;9.38;;;8.10;;
52047;SDS011;46904;49.438;8.752;2023-05-21T03:42:30;9.93;;;8.00;;
52047;SDS011;46904;49.438;8.752;2023-05-21T03:44:56;9.27;;;7.57;;
52047;SDS011;46904;49.438;8.752;2023-05-21T03:47:21;9.75;;;8.30;;
52047;SDS011;46904;49.438;8.752;2023-05-21T03:49:47;9.45;;;7.53;;
52047;SDS011;46904;49.438;8.752;2023-05-21T03:52:12;8.57;;;7.30;;
52047;SDS011;46904;49.438;8.752;2023-05-21T03:54:38;8.35;;;7.05;;
52047;SDS011;46904;49.438;8.752;2023-05-21T03:57:03;12.45;;;7.60;;
52047;SDS011;46904;49.438;8.752;2023-05-21T03:59:29;10.23;;;7.75;;
52047;SDS011;46904;49.438;8.752;2023-05-21T04:02:02;9.65;;;7.50;;
52047;SDS011;46904;49.438;8.752;2023-05-21T04:04:27;10.10;;;7.97;;
52047;SDS011;46904;49.438;8.752;2023-05-21T04:06:53;9.38;;;7.45;;
52047;SDS011;46904;49.438;8.752;2023-05-21T04:09:18;10.35;;;7.90;;
52047;SDS011;46904;49.438;8.752;2023-05-21T04:11:44;8.77;;;7.68;;
52047;SDS011;46904;49.438;8.752;2023-05-21T04:14:09;8.73;;;7.38;;
52047;SDS011;46904;49.438;8.752;2023-05-21T04:16:35;8.93;;;7.43;;
52047;SDS011;46904;49.438;8.752;2023-05-21T04:19:01;8.57;;;6.60;;
52047;SDS011;46904;49.438;8.752;2023-05-21T04:21:26;9.30;;;7.70;;
52047;SDS011;46904;49.438;8.752;2023-05-21T04:23:52;9.13;;;7.47;;
52047;SDS011;46904;49.438;8.752;2023-05-21T04:26:17;9.65;;;7.50;;
52047;SDS011;46904;49.438;8.752;2023-05-21T04:28:43;9.73;;;8.20;;
52047;SDS011;46904;49.438;8.752;2023-05-21T04:31:09;8.48;;;7.15;;
52047;SDS011;46904;49.438;8.752;2023-05-21T04:33:34;8.93;;;7.00;;
52047;SDS011;46904;49.438;8.752;2023-05-21T04:36:00;9.90;;;7.47;;
52047;SDS011;46904;49.438;8.752;2023-05-21T04:38:25;9.52;;;7.78;;
52047;SDS011;46904;49.438;8.752;2023-05-21T04:40:51;9.35;;;7.65;;
52047;SDS011;46904;49.438;8.752;2023-05-21T04:43:17;8.88;;;7.05;;
52047;SDS011;46904;49.438;8.752;2023-05-21T04:45:42;8.00;;;6.78;;
52047;SDS011;46904;49.438;8.752;2023-05-21T04:48:08;8.00;;;7.20;;
52047;SDS011;46904;49.438;8.752;2023-05-21T04:50:34;8.48;;;7.50;;
52047;SDS011;46904;49.438;8.752;2023-05-21T04:53:00;8.75;;;7.43;;
52047;SDS011;46904;49.438;8.752;2023-05-21T04:55:26;10.45;;;7.40;;
52047;SDS011;46904;49.438;8.752;2023-05-21T04:57:52;7.85;;;6.75;;
52047;SDS011;46904;49.438;8.752;2023-05-21T05:00:17;9.57;;;7.47;;
52047;SDS011;46904;49.438;8.752;2023-05-21T05:02:43;9.65;;;8.15;;
52047;SDS011;46904;49.438;8.752;2023-05-21T05:05:08;10.38;;;7.32;;
52047;SDS011;46904;49.438;8.752;2023-05-21T05:07:34;8.88;;;7.43;;
52047;SDS011;46904;49.438;8.752;2023-05-21T05:10:00;9.35;;;7.50;;
52047;SDS011;46904;49.438;8.752;2023-05-21T05:12:25;8.35;;;6.75;;
52047;SDS011;46904;49.438;8.752;2023-05-21T05:14:51;11.25;;;6.47;;
52047;SDS011;46904;49.438;8.752;2023-05-21T05:17:16;8.88;;;6.97;;
52047;SDS011;46904;49.438;8.752;2023-05-21T05:19:42;18.40;;;8.23;;
52047;SDS011;46904;49.438;8.752;2023-05-21T05:22:07;7.80;;;6.72;;
52047;SDS011;46904;49.438;8.752;2023-05-21T05:24:33;8.35;;;6.45;;
52047;SDS011;46904;49.438;8.752;2023-05-21T05:26:58;10.93;;;7.55;;
52047;SDS011;46904;49.438;8.752;2023-05-21T05:29:24;10.23;;;7.75;;
52047;SDS011;46904;49.438;8.752;2023-05-21T05:31:50;9.60;;;7.72;;
52047;SDS011;46904;49.438;8.752;2023-05-21T05:34:16;9.10;;;6.53;;
52047;SDS011;46904;49.438;8.752;2023-05-21T05:36:41;7.75;;;6.95;;
52047;SDS011;46904;49.438;8.752;2023-05-21T05:39:07;8.15;;;6.95;;
52047;SDS011;46904;49.438;8.752;2023-05-21T05:41:33;14.90;;;8.57;;
52047;SDS011;46904;49.438;8.752;2023-05-21T05:43:58;7.25;;;6.45;;
52047;SDS011;46904;49.438;8.752;2023-05-21T05:46:24;8.75;;;7.70;;
52047;SDS011;46904;49.438;8.752;2023-05-21T05:48:49;9.82;;;7.18;;
52047;SDS011;46904;49.438;8.752;2023-05-21T05:51:15;8.10;;;7.30;;
52047;SDS011;46904;49.438;8.752;2023-05-21T05:53:42;8.38;;;7.10;;
52047;SDS011;46904;49.438;8.752;2023-05-21T05:56:07;8.57;;;6.90;;
52047;SDS011;46904;49.438;8.752;2023-05-21T06:01:05;9.27;;;6.78;;
52047;SDS011;46904;49.438;8.752;2023-05-21T06:03:31;8.97;;;6.67;;
52047;SDS011;46904;49.438;8.752;2023-05-21T06:05:57;11.90;;;7.53;;
52047;SDS011;46904;49.438;8.752;2023-05-21T06:08:26;8.32;;;7.47;;
52047;SDS011;46904;49.438;8.752;2023-05-21T06:10:52;7.07;;;6.38;;
52047;SDS011;46904;49.438;8.752;2023-05-21T06:13:18;9.30;;;7.18;;
52047;SDS011;46904;49.438;8.752;2023-05-21T06:15:43;11.60;;;8.07;;
52047;SDS011;46904;49.438;8.752;2023-05-21T06:18:09;8.70;;;6.70;;
52047;SDS011;46904;49.438;8.752;2023-05-21T06:20:34;8.00;;;7.15;;
52047;SDS011;46904;49.438;8.752;2023-05-21T06:23:00;9.00;;;7.90;;
52047;SDS011;46904;49.438;8.752;2023-05-21T06:25:25;8.25;;;6.78;;
52047;SDS011;46904;49.438;8.752;2023-05-21T06:27:51;8.18;;;7.32;;
52047;SDS011;46904;49.438;8.752;2023-05-21T06:30:16;8.05;;;6.47;;
52047;SDS011;46904;49.438;8.752;2023-05-21T06:32:42;7.72;;;6.20;;
52047;SDS011;46904;49.438;8.752;2023-05-21T06:35:08;8.50;;;6.85;;
52047;SDS011;46904;49.438;8.752;2023-05-21T06:37:33;7.55;;;6.55;;
52047;SDS011;46904;49.438;8.752;2023-05-21T06:40:00;7.50;;;6.53;;
52047;SDS011;46904;49.438;8.752;2023-05-21T06:42:25;8.18;;;7.10;;
52047;SDS011;46904;49.438;8.752;2023-05-21T06:44:52;8.05;;;7.00;;
52047;SDS011;46904;49.438;8.752;2023-05-21T06:47:18;8.18;;;7.28;;
52047;SDS011;46904;49.438;8.752;2023-05-21T06:49:43;7.35;;;6.55;;
52047;SDS011;46904;49.438;8.752;2023-05-21T06:52:09;7.80;;;7.00;;
52047;SDS011;46904;49.438;8.752;2023-05-21T06:54:34;9.02;;;7.07;;
52047;SDS011;46904;49.438;8.752;2023-05-21T06:57:00;8.75;;;7.13;;
52047;SDS011;46904;49.438;8.752;2023-05-21T06:59:25;8.52;;;6.97;;
52047;SDS011;46904;49.438;8.752;2023-05-21T07:01:51;7.68;;;6.88;;
52047;SDS011;46904;49.438;8.752;2023-05-21T07:04:16;9.02;;;6.80;;
52047;SDS011;46904;49.438;8.752;2023-05-21T07:06:43;7.57;;;6.25;;
52047;SDS011;46904;49.438;8.752;2023-05-21T07:09:10;8.38;;;7.40;;
52047;SDS011;46904;49.438;8.752;2023-05-21T07:11:36;6.95;;;6.20;;
52047;SDS011;46904;49.438;8.752;2023-05-21T07:14:02;7.30;;;6.10;;
52047;SDS011;46904;49.438;8.752;2023-05-21T07:16:28;7.28;;;6.53;;
52047;SDS011;46904;49.438;8.752;2023-05-21T07:18:54;7.93;;;7.03;;
52047;SDS011;46904;49.438;8.752;2023-05-21T07:21:21;7.28;;;6.43;;
52047;SDS011;46904;49.438;8.752;2023-05-21T07:23:47;7.82;;;6.47;;
52047;SDS011;46904;49.438;8.752;2023-05-21T07:26:13;7.43;;;6.72;;
52047;SDS011;46904;49.438;8.752;2023-05-21T07:28:38;7.80;;;6.15;;
52047;SDS011;46904;49.438;8.752;2023-05-21T07:31:04;6.85;;;6.15;;
52047;SDS011;46904;49.438;8.752;2023-05-21T07:33:29;6.93;;;6.22;;
52047;SDS011;46904;49.438;8.752;2023-05-21T07:35:55;7.38;;;6.28;;
52047;SDS011;46904;49.438;8.752;2023-05-21T07:38:20;7.65;;;6.90;;
52047;SDS011;46904;49.438;8.752;2023-05-21T07:40:46;8.32;;;7.30;;
52047;SDS011;46904;49.438;8.752;2023-05-21T07:43:12;8.30;;;6.45;;
52047;SDS011;46904;49.438;8.752;2023-05-21T07:45:37;9.02;;;6.45;;
52047;SDS011;46904;49.438;8.752;2023-05-21T07:48:03;8.23;;;6.45;;
52047;SDS011;46904;49.438;8.752;2023-05-21T07:50:45;9.10;;;6.65;;
52047;SDS011;46904;49.438;8.752;2023-05-21T07:53:30;7.40;;;6.65;;
52047;SDS011;46904;49.438;8.752;2023-05-21T07:56:00;6.43;;;5.70;;
52047;SDS011;46904;49.438;8.752;2023-05-21T07:58:25;6.72;;;6.05;;
52047;SDS011;46904;49.438;8.752;2023-05-21T08:00:51;7.88;;;7.00;;
52047;SDS011;46904;49.438;8.752;2023-05-21T08:03:16;7.40;;;6.60;;
52047;SDS011;46904;49.438;8.752;2023-05-21T08:05:45;7.15;;;6.10;;
52047;SDS011;46904;49.438;8.752;2023-05-21T08:08:11;8.20;;;6.70;;
52047;SDS011;46904;49.438;8.752;2023-05-21T08:10:37;7.97;;;6.65;;
52047;SDS011;46904;49.438;8.752;2023-05-21T08:13:02;7.65;;;6.53;;
52047;SDS011;46904;49.438;8.752;2023-05-21T08:15:28;7.20;;;6.32;;
52047;SDS011;46904;49.438;8.752;2023-05-21T08:17:54;7.35;;;6.57;;
52047;SDS011;46904;49.438;8.752;2023-05-21T08:20:20;6.82;;;6.13;;
52047;SDS011;46904;49.438;8.752;2023-05-21T08:22:45;7.28;;;6.30;;
52047;SDS011;46904;49.438;8.752;2023-05-21T08:25:11;7.15;;;6.45;;
52047;SDS011;46904;49.438;8.752;2023-05-21T08:27:36;6.75;;;6.05;;
52047;SDS011;46904;49.438;8.752;2023-05-21T08:30:02;7.82;;;6.53;;
52047;SDS011;46904;49.438;8.752;2023-05-21T08:32:27;6.90;;;6.20;;
52047;SDS011;46904;49.438;8.752;2023-05-21T08:34:53;9.73;;;6.72;;
52047;SDS011;46904;49.438;8.752;2023-05-21T08:37:20;6.75;;;6.03;;
52047;SDS011;46904;49.438;8.752;2023-05-21T08:39:45;6.00;;;5.40;;
52047;SDS011;46904;49.438;8.752;2023-05-21T08:42:29;7.35;;;6.57;;
52047;SDS011;46904;49.438;8.752;2023-05-21T08:45:04;8.63;;;6.57;;
52047;SDS011;46904;49.438;8.752;2023-05-21T08:47:33;8.00;;;6.25;;
52047;SDS011;46904;49.438;8.752;2023-05-21T08:49:59;6.97;;;6.28;;
52047;SDS011;46904;49.438;8.752;2023-05-21T08:52:25;6.97;;;6.28;;
52047;SDS011;46904;49.438;8.752;2023-05-21T08:54:51;7.63;;;6.85;;
52047;SDS011;46904;49.438;8.752;2023-05-21T08:57:17;6.80;;;5.90;;
52047;SDS011;46904;49.438;8.752;2023-05-21T08:59:43;7.95;;;6.63;;
52047;SDS011;46904;49.438;8.752;2023-05-21T09:02:15;6.65;;;6.05;;
52047;SDS011;46904;49.438;8.752;2023-05-21T09:04:44;6.95;;;6.25;;
52047;SDS011;46904;49.438;8.752;2023-05-21T09:07:13;7.25;;;6.35;;
52047;SDS011;46904;49.438;8.752;2023-05-21T09:09:41;6.65;;;6.05;;
52047;SDS011;46904;49.438;8.752;2023-05-21T09:12:10;6.90;;;6.20;;
52047;SDS011;46904;49.438;8.752;2023-05-21T09:14:35;6.78;;;6.13;;
52047;SDS011;46904;49.438;8.752;2023-05-21T09:17:01;6.80;;;6.20;;
52047;SDS011;46904;49.438;8.752;2023-05-21T09:19:27;7.30;;;5.93;;
52047;SDS011;46904;49.438;8.752;2023-05-21T09:21:52;7.60;;;6.18;;
52047;SDS011;46904;49.438;8.752;2023-05-21T09:24:20;6.85;;;6.15;;
52047;SDS011;46904;49.438;8.752;2023-05-21T09:26:45;8.05;;;6.60;;
52047;SDS011;46904;49.438;8.752;2023-05-21T09:29:16;7.28;;;6.40;;
52047;SDS011;46904;49.438;8.752;2023-05-21T09:31:42;6.25;;;5.50;;
52047;SDS011;46904;49.438;8.752;2023-05-21T09:34:08;6.90;;;6.20;;
52047;SDS011;46904;49.438;8.752;2023-05-21T09:36:36;6.20;;;5.60;;
52047;SDS011;46904;49.438;8.752;2023-05-21T09:39:01;6.05;;;5.45;;
52047;SDS011;46904;49.438;8.752;2023-05-21T09:41:33;6.20;;;5.57;;
52047;SDS011;46904;49.438;8.752;2023-05-21T09:46:24;6.38;;;5.25;;
52047;SDS011;46904;49.438;8.752;2023-05-21T09:48:50;6.00;;;5.40;;
52047;SDS011;46904;49.438;8.752;2023-05-21T09:51:16;6.03;;;5.43;;
52047;SDS011;46904;49.438;8.752;2023-05-21T09:53:43;6.63;;;5.97;;
52047;SDS011;46904;49.438;8.752;2023-05-21T09:56:08;6.05;;;5.45;;
52047;SDS011;46904;49.438;8.752;2023-05-21T09:58:34;5.93;;;5.32;;
52047;SDS011;46904;49.438;8.752;2023-05-21T10:00:59;5.93;;;5.32;;
52047;SDS011;46904;49.438;8.752;2023-05-21T10:03:25;6.70;;;5.90;;
52047;SDS011;46904;49.438;8.752;2023-05-21T10:05:51;8.98;;;5.43;;
52047;SDS011;46904;49.438;8.752;2023-05-21T10:08:17;6.78;;;6.07;;
52047;SDS011;46904;49.438;8.752;2023-05-21T10:10:45;5.22;;;4.72;;
52047;SDS011;46904;49.438;8.752;2023-05-21T10:13:11;7.43;;;5.47;;
52047;SDS011;46904;49.438;8.752;2023-05-21T10:15:42;6.07;;;5.47;;
52047;SDS011;46904;49.438;8.752;2023-05-21T10:18:08;7.38;;;5.50;;
52047;SDS011;46904;49.438;8.752;2023-05-21T10:20:34;6.13;;;5.53;;
52047;SDS011;46904;49.438;8.752;2023-05-21T10:23:03;6.03;;;5.43;;
52047;SDS011;46904;49.438;8.752;2023-05-21T10:25:29;5.60;;;5.10;;
52047;SDS011;46904;49.438;8.752;2023-05-21T10:27:55;7.13;;;6.22;;
52047;SDS011;46904;49.438;8.752;2023-05-21T10:30:22;6.22;;;5.63;;
52047;SDS011;46904;49.438;8.752;2023-05-21T10:32:55;6.40;;;5.80;;
52047;SDS011;46904;49.438;8.752;2023-05-21T10:35:21;8.20;;;7.22;;
52047;SDS011;46904;49.438;8.752;2023-05-21T10:37:47;5.85;;;5.32;;
52047;SDS011;46904;49.438;8.752;2023-05-21T10:40:13;6.63;;;5.50;;
52047;SDS011;46904;49.438;8.752;2023-05-21T11:00:51;7.15;;;5.75;;
52047;SDS011;46904;49.438;8.752;2023-05-21T11:03:17;10.45;;;6.20;;
52047;SDS011;46904;49.438;8.752;2023-05-21T11:05:50;6.07;;;5.47;;
52047;SDS011;46904;49.438;8.752;2023-05-21T11:10:52;5.75;;;5.25;;
52047;SDS011;46904;49.438;8.752;2023-05-21T11:13:18;5.55;;;5.10;;
52047;SDS011;46904;49.438;8.752;2023-05-21T11:21:03;5.68;;;5.13;;
52047;SDS011;46904;49.438;8.752;2023-05-21T11:26:16;6.05;;;5.15;;
52047;SDS011;46904;49.438;8.752;2023-05-21T11:28:42;5.35;;;4.85;;
52047;SDS011;46904;49.438;8.752;2023-05-21T11:31:26;6.20;;;5.35;;
52047;SDS011;46904;49.438;8.752;2023-05-21T11:36:37;6.47;;;5.75;;
52047;SDS011;46904;49.438;8.752;2023-05-21T11:41:56;6.75;;;5.63;;
52047;SDS011;46904;49.438;8.752;2023-05-21T11:47:07;6.25;;;5.10;;
52047;SDS011;46904;49.438;8.752;2023-05-21T11:49:34;6.95;;;5.82;;
52047;SDS011;46904;49.438;8.752;2023-05-21T11:52:08;12.65;;;6.43;;
52047;SDS011;46904;49.438;8.752;2023-05-21T11:54:45;5.78;;;5.28;;
52047;SDS011;46904;49.438;8.752;2023-05-21T11:57:11;8.98;;;6.40;;
52047;SDS011;46904;49.438;8.752;2023-05-21T11:59:37;5.88;;;5.30;;
52047;SDS011;46904;49.438;8.752;2023-05-21T12:02:03;6.45;;;5.85;;
52047;SDS011;46904;49.438;8.752;2023-05-21T12:04:29;6.00;;;5.35;;
52047;SDS011;46904;49.438;8.752;2023-05-21T12:06:57;6.28;;;5.65;;
52047;SDS011;46904;49.438;8.752;2023-05-21T12:09:23;6.50;;;5.68;;
52047;SDS011;46904;49.438;8.752;2023-05-21T12:11:49;6.90;;;6.20;;
52047;SDS011;46904;49.438;8.752;2023-05-21T12:14:15;6.05;;;5.45;;
52047;SDS011;46904;49.438;8.752;2023-05-21T12:16:40;5.60;;;5.10;;
52047;SDS011;46904;49.438;8.752;2023-05-21T12:19:06;5.97;;;5.38;;
52047;SDS011;46904;49.438;8.752;2023-05-21T12:21:31;6.10;;;5.30;;
52047;SDS011;46904;49.438;8.752;2023-05-21T12:23:57;6.18;;;5.55;;
52047;SDS011;46904;49.438;8.752;2023-05-21T12:26:23;5.88;;;5.28;;
52047;SDS011;46904;49.438;8.752;2023-05-21T12:28:55;7.60;;;6.07;;
52047;SDS011;46904;49.438;8.752;2023-05-21T12:31:21;7.22;;;5.95;;
52047;SDS011;46904;49.438;8.752;2023-05-21T12:33:53;7.55;;;5.57;;
52047;SDS011;46904;49.438;8.752;2023-05-21T12:36:22;6.35;;;5.80;;
52047;SDS011;46904;49.438;8.752;2023-05-21T12:38:48;5.63;;;5.00;;
52047;SDS011;46904;49.438;8.752;2023-05-21T12:41:15;5.82;;;5.15;;
52047;SDS011;46904;49.438;8.752;2023-05-21T12:43:40;5.93;;;5.43;;
52047;SDS011;46904;49.438;8.752;2023-05-21T12:46:06;5.68;;;5.18;;
52047;SDS011;46904;49.438;8.752;2023-05-21T12:48:31;5.43;;;4.93;;
52047;SDS011;46904;49.438;8.752;2023-05-21T12:50:59;5.63;;;4.97;;
52047;SDS011;46904;49.438;8.752;2023-05-21T12:53:30;5.50;;;5.00;;
52047;SDS011;46904;49.438;8.752;2023-05-21T12:56:09;5.32;;;4.82;;
52047;SDS011;46904;49.438;8.752;2023-05-21T12:58:35;5.82;;;5.30;;
52047;SDS011;46904;49.438;8.752;2023-05-21T13:01:01;5.57;;;5.07;;
52047;SDS011;46904;49.438;8.752;2023-05-21T13:03:26;6.55;;;5.38;;
52047;SDS011;46904;49.438;8.752;2023-05-21T13:05:58;5.75;;;5.25;;
52047;SDS011;46904;49.438;8.752;2023-05-21T13:08:24;5.25;;;4.80;;
52047;SDS011;46904;49.438;8.752;2023-05-21T13:10:49;10.07;;;5.80;;
52047;SDS011;46904;49.438;8.752;2023-05-21T13:13:15;5.97;;;4.85;;
52047;SDS011;46904;49.438;8.752;2023-05-21T13:15:40;5.97;;;5.38;;
52047;SDS011;46904;49.438;8.752;2023-05-21T13:18:06;5.43;;;4.93;;
52047;SDS011;46904;49.438;8.752;2023-05-21T13:20:31;5.15;;;4.65;;
52047;SDS011;46904;49.438;8.752;2023-05-21T13:22:57;5.47;;;4.70;;
52047;SDS011;46904;49.438;8.752;2023-05-21T13:25:23;5.75;;;4.78;;
52047;SDS011;46904;49.438;8.752;2023-05-21T13:27:49;6.63;;;5.00;;
52047;SDS011;46904;49.438;8.752;2023-05-21T13:30:15;5.00;;;4.50;;
52047;SDS011;46904;49.438;8.752;2023-05-21T13:32:41;6.20;;;5.47;;
52047;SDS011;46904;49.438;8.752;2023-05-21T13:35:07;5.70;;;4.88;;
52047;SDS011;46904;49.438;8.752;2023-05-21T13:37:33;5.93;;;5.40;;
52047;SDS011;46904;49.438;8.752;2023-05-21T13:39:59;6.00;;;5.13;;
52047;SDS011;46904;49.438;8.752;2023-05-21T13:42:24;5.65;;;5.15;;
52047;SDS011;46904;49.438;8.752;2023-05-21T13:44:50;5.88;;;5.28;;
52047;SDS011;46904;49.438;8.752;2023-05-21T13:47:16;6.10;;;5.50;;
52047;SDS011;46904;49.438;8.752;2023-05-21T13:49:42;5.82;;;5.30;;
52047;SDS011;46904;49.438;8.752;2023-05-21T13:52:08;5.78;;;5.18;;
52047;SDS011;46904;49.438;8.752;2023-05-21T13:54:34;6.07;;;5.47;;
52047;SDS011;46904;49.438;8.752;2023-05-21T13:57:00;7.13;;;5.10;;
52047;SDS011;46904;49.438;8.752;2023-05-21T13:59:25;5.85;;;5.20;;
52047;SDS011;46904;49.438;8.752;2023-05-21T14:01:51;6.28;;;5.03;;
52047;SDS011;46904;49.438;8.752;2023-05-21T14:04:17;5.88;;;5.20;;
52047;SDS011;46904;49.438;8.752;2023-05-21T14:06:43;6.88;;;6.25;;
52047;SDS011;46904;49.438;8.752;2023-05-21T14:09:09;7.47;;;5.75;;
52047;SDS011;46904;49.438;8.752;2023-05-21T14:11:35;6.50;;;5.88;;
52047;SDS011;46904;49.438;8.752;2023-05-21T14:14:01;5.55;;;5.05;;
52047;SDS011;46904;49.438;8.752;2023-05-21T14:16:26;5.82;;;5.32;;
52047;SDS011;46904;49.438;8.752;2023-05-21T14:18:52;5.55;;;5.05;;
52047;SDS011;46904;49.438;8.752;2023-05-21T14:21:18;6.65;;;5.45;;
52047;SDS011;46904;49.438;8.752;2023-05-21T14:23:44;6.03;;;5.45;;
52047;SDS011;46904;49.438;8.752;2023-05-21T14:26:10;5.90;;;5.28;;
52047;SDS011;46904;49.438;8.752;2023-05-21T14:28:35;10.05;;;6.32;;
52047;SDS011;46904;49.438;8.752;2023-05-21T14:31:01;6.30;;;5.70;;
52047;SDS011;46904;49.438;8.752;2023-05-21T14:33:26;6.45;;;5.85;;
52047;SDS011;46904;49.438;8.752;2023-05-21T14:35:52;5.82;;;5.22;;
52047;SDS011;46904;49.438;8.752;2023-05-21T14:38:17;6.32;;;5.72;;
52047;SDS011;46904;49.438;8.752;2023-05-21T14:40:43;5.82;;;5.32;;
52047;SDS011;46904;49.438;8.752;2023-05-21T14:43:08;6.28;;;5.68;;
52047;SDS011;46904;49.438;8.752;2023-05-21T14:45:35;5.97;;;5.47;;
52047;SDS011;46904;49.438;8.752;2023-05-21T14:48:01;6.07;;;5.57;;
52047;SDS011;46904;49.438;8.752;2023-05-21T14:50:26;6.20;;;5.20;;
52047;SDS011;46904;49.438;8.752;2023-05-21T14:52:52;6.13;;;5.60;;
52047;SDS011;46904;49.438;8.752;2023-05-21T14:55:18;6.05;;;5.50;;
52047;SDS011;46904;49.438;8.752;2023-05-21T14:57:50;7.05;;;5.88;;
52047;SDS011;46904;49.438;8.752;2023-05-21T15:00:16;5.60;;;5.10;;
52047;SDS011;46904;49.438;8.752;2023-05-21T15:02:41;5.47;;;4.97;;
52047;SDS011;46904;49.438;8.752;2023-05-21T15:05:07;6.45;;;5.85;;
52047;SDS011;46904;49.438;8.752;2023-05-21T15:07:33;5.97;;;5.47;;
52047;SDS011;46904;49.438;8.752;2023-05-21T15:09:58;6.18;;;5.03;;
52047;SDS011;46904;49.438;8.752;2023-05-21T15:12:24;5.93;;;5.43;;
52047;SDS011;46904;49.438;8.752;2023-05-21T15:14:49;5.75;;;5.25;;
52047;SDS011;46904;49.438;8.752;2023-05-21T15:17:15;6.13;;;5.25;;
52047;SDS011;46904;49.438;8.752;2023-05-21T15:19:40;5.63;;;5.10;;
52047;SDS011;46904;49.438;8.752;2023-05-21T15:22:06;7.35;;;5.03;;
52047;SDS011;46904;49.438;8.752;2023-05-21T15:24:32;4.82;;;4.43;;